createdAt,value
2023-05-08T07:24:34.952Z,1.80
2023-05-08T07:27:02.678Z,3.33
2023-05-08T07:29:30.346Z,2.28
2023-05-08T07:31:57.872Z,3.83
2023-05-08T07:34:25.334Z,2.83
2023-05-08T07:36:53.073Z,1.50
2023-05-08T07:39:20.543Z,1.93
2023-05-08T07:41:49.911Z,1.58
2023-05-08T07:44:17.596Z,2.10
2023-05-08T07:46:45.188Z,1.80
2023-05-08T07:49:12.631Z,2.53
2023-05-08T07:51:40.836Z,2.65
2023-05-08T07:54:08.718Z,3.13
2023-05-08T07:56:36.186Z,3.03
2023-05-08T07:59:03.739Z,2.20
2023-05-08T08:01:32.223Z,2.28
2023-05-08T08:04:00.293Z,2.85
2023-05-08T08:06:28.193Z,2.15
2023-05-08T08:08:55.791Z,2.20
2023-05-08T08:11:23.582Z,2.10
2023-05-08T08:13:51.136Z,1.70
2023-05-08T08:16:18.642Z,2.40
2023-05-08T08:18:46.167Z,1.88
2023-05-08T08:21:13.804Z,2.75
2023-05-08T08:23:41.297Z,2.90
2023-05-08T08:26:08.678Z,5.05
2023-05-08T08:28:35.973Z,7.03
2023-05-08T08:31:03.678Z,4.20
2023-05-08T08:33:31.135Z,4.38
2023-05-08T08:35:58.994Z,3.50
2023-05-08T08:38:26.676Z,3.47
2023-05-08T08:40:54.299Z,2.58
2023-05-08T08:43:22.111Z,3.27
2023-05-08T08:45:49.605Z,3.20
2023-05-08T08:48:18.964Z,2.08
2023-05-08T08:50:50.647Z,2.00
2023-05-08T08:53:26.716Z,2.08
2023-05-08T08:55:58.164Z,2.35
2023-05-08T08:58:46.175Z,2.35
2023-05-08T09:01:20.035Z,1.40
2023-05-08T09:03:49.967Z,1.92
2023-05-08T09:06:19.249Z,3.33
2023-05-08T09:08:47.364Z,3.45
2023-05-08T09:11:14.946Z,3.13
2023-05-08T09:13:42.463Z,2.40
2023-05-08T09:16:10.207Z,2.85
2023-05-08T09:18:37.724Z,2.80
2023-05-08T09:21:06.675Z,3.35
2023-05-08T09:23:53.753Z,4.05
2023-05-08T09:26:38.785Z,2.85
2023-05-08T09:29:18.347Z,2.45
2023-05-08T09:31:51.451Z,2.28
2023-05-08T09:34:32.566Z,2.42
2023-05-08T09:37:08.930Z,2.45
2023-05-08T09:39:39.061Z,2.60
2023-05-08T09:42:06.958Z,2.90
2023-05-08T09:44:45.809Z,2.58
2023-05-08T09:50:09.681Z,2.03
2023-05-08T09:52:45.107Z,2.85
2023-05-08T09:55:12.629Z,2.28
2023-05-08T09:57:52.897Z,1.90
2023-05-08T10:00:21.455Z,2.85
2023-05-08T10:03:00.387Z,1.83
2023-05-08T10:05:35.863Z,2.10
2023-05-08T10:08:29.921Z,2.05
2023-05-08T10:11:17.435Z,1.73
2023-05-08T10:13:46.287Z,1.70
2023-05-08T10:18:50.214Z,1.50
2023-05-08T10:21:19.778Z,1.98
2023-05-08T10:23:50.053Z,2.15
2023-05-08T10:26:28.851Z,1.55
2023-05-08T10:29:08.329Z,1.90
2023-05-08T10:31:40.198Z,1.70
2023-05-08T10:34:12.674Z,1.85
2023-05-08T10:36:40.430Z,1.90
2023-05-08T10:39:08.295Z,1.38
2023-05-08T10:41:36.638Z,2.10
2023-05-08T10:44:05.112Z,2.10
2023-05-08T10:47:26.249Z,2.15
2023-05-08T10:50:39.709Z,2.70
2023-05-08T10:53:51.750Z,2.08
2023-05-08T10:56:28.887Z,2.33
2023-05-08T10:58:58.482Z,1.95
2023-05-08T11:01:26.511Z,2.67
2023-05-08T11:03:54.826Z,1.90
2023-05-08T11:06:48.204Z,2.03
2023-05-08T11:09:29.472Z,2.05
2023-05-08T11:12:27.343Z,1.73
2023-05-08T11:15:04.496Z,1.75
2023-05-08T11:17:32.949Z,2.05
2023-05-08T11:20:06.364Z,1.85
2023-05-08T11:22:36.328Z,2.13
2023-05-08T11:25:08.054Z,2.35
2023-05-08T11:27:59.471Z,1.92
2023-05-08T11:30:35.438Z,2.10
2023-05-08T11:33:06.107Z,1.73
2023-05-08T11:35:57.905Z,2.20
2023-05-08T11:38:37.544Z,2.60
2023-05-08T11:41:22.778Z,2.53
2023-05-08T11:44:19.723Z,2.60
2023-05-08T11:46:55.486Z,2.88
2023-05-08T11:49:29.412Z,2.42
2023-05-08T11:51:59.384Z,2.28
2023-05-08T11:54:30.938Z,2.20
2023-05-08T11:56:59.014Z,2.50
2023-05-08T11:59:26.484Z,2.20
2023-05-08T12:02:06.914Z,2.28
2023-05-08T12:04:46.636Z,2.65
2023-05-08T12:07:16.022Z,3.25
2023-05-08T12:09:45.685Z,2.67
2023-05-08T12:12:13.091Z,3.13
2023-05-08T12:14:40.698Z,3.28
2023-05-08T12:17:09.196Z,3.13
2023-05-08T12:19:36.797Z,2.92
2023-05-08T12:22:04.367Z,3.85
2023-05-08T12:24:31.850Z,2.50
2023-05-08T12:26:59.715Z,3.17
2023-05-08T12:29:27.284Z,3.03
2023-05-08T12:31:55.184Z,3.00
2023-05-08T12:34:23.306Z,2.00
2023-05-08T12:37:02.810Z,2.40
2023-05-08T12:39:38.364Z,4.28
2023-05-08T12:42:05.873Z,2.75
2023-05-08T12:44:33.468Z,3.15
2023-05-08T12:47:01.102Z,3.55
2023-05-08T12:49:32.520Z,2.50
2023-05-08T12:52:09.014Z,3.47
2023-05-08T12:54:48.183Z,3.33
2023-05-08T12:57:18.028Z,3.13
2023-05-08T12:59:46.326Z,3.03
2023-05-08T13:02:20.912Z,3.08
2023-05-08T13:04:53.247Z,2.85
2023-05-08T13:07:21.417Z,3.28
2023-05-08T13:10:03.057Z,2.87
2023-05-08T13:12:31.333Z,2.47
2023-05-08T13:14:58.921Z,2.42
2023-05-08T13:17:26.597Z,2.80
2023-05-08T13:19:54.201Z,2.95
2023-05-08T13:22:25.856Z,3.33
2023-05-08T13:24:53.466Z,4.03
2023-05-08T13:27:21.129Z,3.60
2023-05-08T13:29:48.871Z,3.60
2023-05-08T13:32:16.490Z,3.50
2023-05-08T13:34:49.849Z,2.63
2023-05-08T13:37:19.512Z,2.80
2023-05-08T13:39:46.976Z,2.88
2023-05-08T13:42:14.672Z,3.28
2023-05-08T13:44:43.090Z,2.53
2023-05-08T13:47:10.539Z,2.93
2023-05-08T13:49:38.245Z,3.00
2023-05-08T13:52:05.679Z,2.25
2023-05-08T13:54:33.485Z,2.40
2023-05-08T13:57:02.132Z,2.67
2023-05-08T13:59:30.747Z,2.53
2023-05-08T14:01:58.341Z,3.00
2023-05-08T14:04:26.215Z,3.42
2023-05-08T14:06:53.936Z,2.50
2023-05-08T14:09:21.410Z,2.40
2023-05-08T14:11:49.064Z,2.75
2023-05-08T14:14:16.447Z,2.67
2023-05-08T14:16:44.147Z,3.15
2023-05-08T14:19:11.589Z,3.00
2023-05-08T14:21:39.957Z,2.20
2023-05-08T14:24:08.345Z,3.35
2023-05-08T14:26:35.853Z,3.15
2023-05-08T14:29:04.477Z,3.22
2023-05-08T14:31:31.896Z,3.35
2023-05-08T14:33:59.711Z,3.70
2023-05-08T14:36:27.632Z,4.13
2023-05-08T14:38:56.329Z,3.85
2023-05-08T14:41:29.586Z,3.45
2023-05-08T14:43:58.065Z,3.22
2023-05-08T14:46:25.845Z,3.63
2023-05-08T14:48:54.292Z,3.08
2023-05-08T14:53:50.721Z,4.45
2023-05-08T14:56:18.446Z,4.97
2023-05-08T14:58:45.976Z,4.43
2023-05-08T15:01:13.491Z,5.20
2023-05-08T15:03:41.214Z,5.07
2023-05-08T15:06:09.121Z,4.75
2023-05-08T15:08:36.685Z,4.97
2023-05-08T15:11:04.350Z,4.78
2023-05-08T15:13:31.849Z,6.43
2023-05-08T15:15:59.659Z,5.43
2023-05-08T15:18:27.926Z,4.88
2023-05-08T15:20:55.368Z,5.88
2023-05-08T15:23:22.730Z,6.00
2023-05-08T15:25:50.296Z,5.47
2023-05-08T15:28:18.138Z,5.50
2023-05-08T15:30:47.262Z,5.18
2023-05-08T15:33:14.910Z,5.38
2023-05-08T15:35:42.549Z,6.20
2023-05-08T15:38:12.173Z,6.22
2023-05-08T15:40:39.664Z,6.32
2023-05-08T15:43:07.209Z,6.05
2023-05-08T15:45:34.768Z,5.80
2023-05-08T15:48:02.335Z,5.65
2023-05-08T15:50:29.915Z,5.57
2023-05-08T15:52:57.729Z,6.70
2023-05-08T15:55:25.134Z,6.75
2023-05-08T15:57:52.567Z,6.97
2023-05-08T16:00:22.994Z,6.80
2023-05-08T16:02:50.901Z,8.90
2023-05-08T16:05:18.412Z,7.22
2023-05-08T16:07:47.915Z,7.47
2023-05-08T16:10:15.520Z,7.57
2023-05-08T16:12:43.190Z,7.03
2023-05-08T16:15:10.949Z,6.95
2023-05-08T16:17:38.513Z,7.50
2023-05-08T16:20:09.074Z,6.80
2023-05-08T16:22:36.789Z,6.55
2023-05-08T16:25:05.017Z,8.13
2023-05-08T16:27:32.428Z,12.70
2023-05-08T16:29:59.890Z,10.73
2023-05-08T16:32:27.590Z,8.02
2023-05-08T16:34:55.150Z,8.32
2023-05-08T16:37:22.589Z,8.40
2023-05-08T16:39:50.335Z,11.75
2023-05-08T16:42:18.735Z,12.20
2023-05-08T16:44:46.880Z,10.38
2023-05-08T16:47:14.558Z,10.07
2023-05-08T16:49:42.082Z,10.88
2023-05-08T16:52:10.006Z,8.55
2023-05-08T16:54:37.439Z,10.85
2023-05-08T16:57:05.154Z,9.77
2023-05-08T16:59:32.902Z,10.35
2023-05-08T17:02:00.618Z,11.77
2023-05-08T17:04:29.675Z,18.00
2023-05-08T17:06:59.348Z,12.02
2023-05-08T17:09:27.312Z,12.00
2023-05-08T17:11:55.101Z,10.98
2023-05-08T17:14:22.523Z,10.02
2023-05-08T17:16:50.109Z,10.25
2023-05-08T17:19:17.869Z,11.38
2023-05-08T17:21:45.402Z,12.75
2023-05-08T17:24:13.003Z,11.20
2023-05-08T17:26:40.400Z,10.45
2023-05-08T17:29:08.023Z,11.77
2023-05-08T17:31:35.747Z,11.93
2023-05-08T17:34:03.578Z,11.55
2023-05-08T17:36:31.350Z,13.18
2023-05-08T17:38:58.853Z,15.38
2023-05-08T17:41:26.513Z,13.68
2023-05-08T17:43:54.834Z,13.57
2023-05-08T17:46:22.637Z,12.07
2023-05-08T17:48:50.277Z,13.82
2023-05-08T17:51:17.839Z,13.13
2023-05-08T17:53:45.378Z,11.52
2023-05-08T17:56:13.291Z,12.13
2023-05-08T17:58:40.831Z,12.35
2023-05-08T18:01:08.598Z,12.80
2023-05-08T18:03:36.258Z,12.32
2023-05-08T18:06:03.895Z,11.93
2023-05-08T18:08:32.727Z,10.90
2023-05-08T18:11:01.192Z,11.50
2023-05-08T18:13:28.712Z,11.40
2023-05-08T18:15:56.349Z,11.05
2023-05-08T18:18:23.866Z,11.00
2023-05-08T18:20:51.327Z,10.88
2023-05-08T18:23:18.913Z,10.20
2023-05-08T18:25:46.178Z,10.65
2023-05-08T18:28:14.093Z,11.15
2023-05-08T18:30:41.456Z,11.43
2023-05-08T18:33:10.238Z,10.18
2023-05-08T18:35:37.684Z,12.30
2023-05-08T18:38:05.231Z,10.00
2023-05-08T18:40:33.013Z,10.80
2023-05-08T18:43:00.774Z,9.55
2023-05-08T18:45:28.639Z,10.02
2023-05-08T18:47:56.937Z,11.48
2023-05-08T18:50:24.761Z,11.30
2023-05-08T18:52:52.352Z,16.92
2023-05-08T18:55:19.919Z,12.65
2023-05-08T18:57:47.417Z,9.75
2023-05-08T19:00:15.831Z,12.07
2023-05-08T19:02:43.651Z,10.30
2023-05-08T19:05:11.271Z,11.65
2023-05-08T19:07:38.878Z,11.20
2023-05-08T19:10:07.796Z,10.10
2023-05-08T19:12:35.156Z,11.60
2023-05-08T19:15:02.785Z,13.10
2023-05-08T19:17:30.237Z,9.23
2023-05-08T19:19:58.046Z,11.25
2023-05-08T19:22:25.443Z,9.48
2023-05-08T19:24:53.019Z,8.32
2023-05-08T19:27:20.435Z,8.77
2023-05-08T19:29:48.030Z,8.68
2023-05-08T19:32:15.451Z,8.63
2023-05-08T19:34:42.922Z,9.68
2023-05-08T19:37:10.594Z,9.77
2023-05-08T19:39:38.235Z,9.05
2023-05-08T19:42:05.960Z,9.88
2023-05-08T19:44:33.321Z,9.70
2023-05-08T19:47:03.150Z,9.38
2023-05-08T19:49:31.422Z,11.07
2023-05-08T19:51:59.081Z,9.50
2023-05-08T19:54:26.935Z,9.48
2023-05-08T19:56:55.394Z,10.25
2023-05-08T19:59:23.087Z,10.82
2023-05-08T20:01:50.840Z,11.02
2023-05-08T20:04:18.653Z,11.20
2023-05-08T20:06:46.170Z,12.00
2023-05-08T20:09:13.739Z,10.98
2023-05-08T20:11:41.163Z,10.85
2023-05-08T20:14:08.800Z,10.02
2023-05-08T20:16:37.536Z,11.38
2023-05-08T20:19:05.230Z,10.43
2023-05-08T20:21:33.367Z,11.27
2023-05-08T20:24:01.174Z,13.45
2023-05-08T20:26:29.326Z,11.20
2023-05-08T20:28:57.422Z,12.35
2023-05-08T20:31:27.119Z,11.52
2023-05-08T20:33:54.903Z,9.90
2023-05-08T20:36:22.787Z,9.98
2023-05-08T20:38:50.786Z,11.13
2023-05-08T20:41:18.536Z,10.85
2023-05-08T20:43:46.192Z,10.07
2023-05-08T20:46:13.790Z,10.68
2023-05-08T20:48:41.967Z,11.30
2023-05-08T20:51:09.990Z,10.32
2023-05-08T20:53:37.876Z,11.50
2023-05-08T20:56:05.818Z,9.95
2023-05-08T20:58:33.632Z,10.68
2023-05-08T21:01:01.312Z,9.93
2023-05-08T21:03:29.056Z,8.93
2023-05-08T21:05:56.654Z,11.13
2023-05-08T21:08:25.871Z,12.32
2023-05-08T21:10:53.439Z,11.07
2023-05-08T21:13:21.628Z,11.13
2023-05-08T21:15:50.004Z,10.35
2023-05-08T21:18:18.002Z,9.25
2023-05-08T21:20:49.231Z,8.15
2023-05-08T21:23:17.811Z,9.32
2023-05-08T21:25:52.634Z,8.50
2023-05-08T21:28:20.333Z,8.15
2023-05-08T21:30:47.860Z,8.85
2023-05-08T21:33:15.260Z,8.80
2023-05-08T21:35:43.277Z,8.82
2023-05-08T21:38:13.825Z,9.55
2023-05-08T21:40:41.355Z,10.10
2023-05-08T21:43:09.122Z,8.00
2023-05-08T21:45:36.583Z,8.18
2023-05-08T21:48:04.717Z,7.65
2023-05-08T21:50:32.399Z,9.30
2023-05-08T21:52:59.981Z,9.00
2023-05-08T21:55:27.590Z,9.40
2023-05-08T21:57:55.071Z,10.13
2023-05-08T22:00:22.472Z,10.50
2023-05-08T22:02:50.059Z,9.65
2023-05-08T22:05:17.967Z,11.45
2023-05-08T22:07:45.529Z,10.80
2023-05-08T22:10:13.362Z,10.60
2023-05-08T22:12:41.028Z,8.88
2023-05-08T22:15:17.880Z,8.73
2023-05-08T22:17:47.160Z,7.50
2023-05-08T22:20:14.865Z,11.35
2023-05-08T22:22:42.508Z,10.20
2023-05-08T22:25:10.126Z,10.00
2023-05-08T22:27:37.688Z,10.77
2023-05-08T22:30:06.737Z,11.93
2023-05-08T22:32:34.775Z,10.88
2023-05-08T22:35:02.315Z,11.05
2023-05-08T22:37:29.981Z,8.88
2023-05-08T22:39:57.565Z,9.27
2023-05-08T22:42:25.587Z,8.27
2023-05-08T22:44:53.213Z,9.43
2023-05-08T22:47:20.690Z,10.52
2023-05-08T22:49:48.171Z,9.57
2023-05-08T22:52:16.477Z,9.10
2023-05-08T22:54:44.069Z,8.13
2023-05-08T22:57:11.632Z,8.48
2023-05-08T22:59:39.212Z,9.13
2023-05-08T23:02:06.950Z,7.68
2023-05-08T23:04:34.362Z,8.95
2023-05-08T23:07:02.164Z,9.55
2023-05-08T23:09:30.374Z,9.23
2023-05-08T23:11:58.001Z,11.10
2023-05-08T23:14:25.329Z,9.75
2023-05-08T23:16:52.860Z,10.27
2023-05-08T23:19:20.380Z,11.25
2023-05-08T23:21:48.185Z,8.55
2023-05-08T23:24:15.763Z,7.88
2023-05-08T23:26:43.514Z,9.85
2023-05-08T23:29:11.100Z,8.75
2023-05-08T23:31:38.666Z,7.97
2023-05-08T23:34:06.395Z,7.60
2023-05-08T23:36:33.999Z,8.85
2023-05-08T23:39:01.624Z,8.35
2023-05-08T23:41:29.173Z,7.00
2023-05-08T23:43:56.799Z,7.07
2023-05-08T23:46:24.562Z,8.13
2023-05-08T23:48:52.222Z,9.02
2023-05-08T23:51:20.967Z,7.18
2023-05-08T23:53:49.658Z,9.05
2023-05-08T23:56:17.105Z,7.57
2023-05-08T23:58:44.848Z,8.30
